createdAt,value
2018-05-25T00:00:42.340Z,19.20
2018-05-25T00:03:10.633Z,19.20
2018-05-25T00:05:38.189Z,19.20
2018-05-25T00:08:05.716Z,19.20
2018-05-25T00:10:33.250Z,19.20
2018-05-25T00:13:00.762Z,19.20
2018-05-25T00:15:28.306Z,19.30
2018-05-25T00:17:55.832Z,19.20
2018-05-25T00:20:23.380Z,19.20
2018-05-25T00:22:50.898Z,19.20
2018-05-25T00:25:18.423Z,19.20
2018-05-25T00:27:45.947Z,19.30
2018-05-25T00:30:13.472Z,19.30
2018-05-25T00:32:40.988Z,19.30
2018-05-25T00:35:08.515Z,19.30
2018-05-25T00:37:36.040Z,19.20
2018-05-25T00:40:03.563Z,19.30
2018-05-25T00:42:31.092Z,19.30
2018-05-25T00:44:58.619Z,19.30
2018-05-25T00:47:26.904Z,19.30
2018-05-25T00:49:54.427Z,19.20
2018-05-25T00:52:21.948Z,19.30
2018-05-25T00:55:01.268Z,19.20
2018-05-25T00:57:30.497Z,19.20
2018-05-25T00:59:58.015Z,19.20
2018-05-25T01:02:25.536Z,19.20
2018-05-25T01:04:53.058Z,19.20
2018-05-25T01:07:20.585Z,19.20
2018-05-25T01:09:48.107Z,19.10
2018-05-25T01:12:15.623Z,19.10
2018-05-25T01:14:43.148Z,19.10
2018-05-25T01:17:10.674Z,19.20
2018-05-25T01:19:38.194Z,19.10
2018-05-25T01:22:05.715Z,19.10
2018-05-25T01:24:33.238Z,19.10
2018-05-25T01:27:00.765Z,19.10
2018-05-25T01:29:29.063Z,19.10
2018-05-25T01:31:56.588Z,19.00
2018-05-25T01:34:24.109Z,19.10
2018-05-25T01:36:51.636Z,19.10
2018-05-25T01:39:19.932Z,19.10
2018-05-25T01:41:47.451Z,19.00
2018-05-25T01:44:15.013Z,19.10
2018-05-25T01:46:42.560Z,19.00
2018-05-25T01:49:10.079Z,19.00
2018-05-25T01:51:37.615Z,19.00
2018-05-25T01:54:05.430Z,19.00
2018-05-25T01:56:32.980Z,19.00
2018-05-25T01:59:00.502Z,19.00
2018-05-25T02:01:28.043Z,19.10
2018-05-25T02:03:55.566Z,19.10
2018-05-25T02:06:23.117Z,19.10
2018-05-25T02:08:50.668Z,19.00
2018-05-25T02:11:18.368Z,19.00
2018-05-25T02:13:45.911Z,19.00
2018-05-25T02:16:14.314Z,19.00
2018-05-25T02:18:41.841Z,19.00
2018-05-25T02:21:09.360Z,18.90
2018-05-25T02:23:36.882Z,18.90
2018-05-25T02:26:04.432Z,18.90
2018-05-25T02:28:32.790Z,18.90
2018-05-25T02:31:00.309Z,18.90
2018-05-25T02:33:27.831Z,18.90
2018-05-25T02:35:55.348Z,18.90
2018-05-25T02:38:22.876Z,18.90
2018-05-25T02:40:50.407Z,18.90
2018-05-25T02:43:17.927Z,18.90
2018-05-25T02:45:45.459Z,18.90
2018-05-25T02:48:12.980Z,18.80
2018-05-25T02:50:40.495Z,18.80
2018-05-25T02:53:08.070Z,18.80
2018-05-25T02:55:35.563Z,18.80
2018-05-25T02:58:03.084Z,18.70
2018-05-25T03:00:30.599Z,18.80
2018-05-25T03:02:58.125Z,18.80
2018-05-25T03:05:25.652Z,18.80
2018-05-25T03:07:53.171Z,18.80
2018-05-25T03:10:20.696Z,18.70
2018-05-25T03:12:48.979Z,18.70
2018-05-25T03:15:16.504Z,18.70
2018-05-25T03:17:44.060Z,18.70
2018-05-25T03:20:11.587Z,18.70
2018-05-25T03:22:39.098Z,18.60
2018-05-25T03:25:06.620Z,18.70
2018-05-25T03:27:34.143Z,18.70
2018-05-25T03:30:01.666Z,18.70
2018-05-25T03:32:29.183Z,18.70
2018-05-25T03:34:56.703Z,18.70
2018-05-25T03:37:24.220Z,18.70
2018-05-25T03:39:51.743Z,18.70
2018-05-25T03:42:19.264Z,18.70
2018-05-25T03:44:47.584Z,18.70
2018-05-25T03:47:15.103Z,18.70
2018-05-25T03:49:42.623Z,18.70
2018-05-25T03:52:10.140Z,18.70
2018-05-25T03:54:37.667Z,18.70
2018-05-25T03:57:05.192Z,18.70
2018-05-25T03:59:44.559Z,18.70
2018-05-25T04:02:12.071Z,18.70
2018-05-25T04:04:40.226Z,18.70
2018-05-25T04:07:08.513Z,18.70
2018-05-25T04:09:36.043Z,18.70
2018-05-25T04:12:04.392Z,18.70
2018-05-25T04:14:31.924Z,18.70
2018-05-25T04:16:59.448Z,18.70
2018-05-25T04:19:26.967Z,18.70
2018-05-25T04:21:54.487Z,18.70
2018-05-25T04:24:22.016Z,18.80
2018-05-25T04:26:49.535Z,18.80
2018-05-25T04:29:17.055Z,18.80
2018-05-25T04:31:44.571Z,18.80
2018-05-25T04:34:12.091Z,18.80
2018-05-25T04:36:39.616Z,18.80
2018-05-25T04:39:07.143Z,18.90
2018-05-25T04:41:34.683Z,18.90
2018-05-25T04:44:02.203Z,18.90
2018-05-25T04:46:29.722Z,18.90
2018-05-25T04:48:57.244Z,18.90
2018-05-25T04:51:24.760Z,18.90
2018-05-25T04:53:52.281Z,18.90
2018-05-25T04:56:19.809Z,18.90
2018-05-25T04:58:48.127Z,18.90
2018-05-25T05:01:15.645Z,18.90
2018-05-25T05:03:43.161Z,19.00
2018-05-25T05:06:10.680Z,19.00
2018-05-25T05:08:38.959Z,19.00
2018-05-25T05:11:06.476Z,19.00
2018-05-25T05:13:34.007Z,19.00
2018-05-25T05:16:01.532Z,19.10
2018-05-25T05:18:29.844Z,19.00
2018-05-25T05:20:57.362Z,19.00
2018-05-25T05:23:24.912Z,19.10
2018-05-25T05:25:53.694Z,19.10
2018-05-25T05:28:21.244Z,19.10
2018-05-25T05:30:48.776Z,19.10
2018-05-25T05:33:16.295Z,19.10
2018-05-25T05:35:44.582Z,19.20
2018-05-25T05:38:12.099Z,19.20
2018-05-25T05:40:39.623Z,19.20
2018-05-25T05:43:07.147Z,19.20
2018-05-25T05:45:34.679Z,19.30
2018-05-25T05:48:02.205Z,19.30
2018-05-25T05:50:29.735Z,19.40
2018-05-25T05:52:57.255Z,19.40
2018-05-25T05:55:24.780Z,19.40
2018-05-25T05:57:52.300Z,19.40
2018-05-25T06:00:19.833Z,19.50
2018-05-25T06:02:47.351Z,19.60
2018-05-25T06:05:15.667Z,19.80
2018-05-25T06:07:43.187Z,19.80
2018-05-25T06:10:10.728Z,19.90
2018-05-25T06:12:38.246Z,19.90
2018-05-25T06:15:05.781Z,20.00
2018-05-25T06:17:33.296Z,20.10
2018-05-25T06:20:00.859Z,20.10
2018-05-25T06:22:28.351Z,20.10
2018-05-25T06:24:55.866Z,20.20
2018-05-25T06:27:23.731Z,20.30
2018-05-25T06:29:51.253Z,20.40
2018-05-25T06:32:18.779Z,20.50
2018-05-25T06:34:46.367Z,20.60
2018-05-25T06:37:14.634Z,20.80
2018-05-25T06:39:42.149Z,20.80
2018-05-25T06:42:09.692Z,20.90
2018-05-25T06:44:37.211Z,21.10
2018-05-25T06:47:05.504Z,22.00
2018-05-25T06:49:33.027Z,22.00
2018-05-25T06:52:00.561Z,22.60
2018-05-25T06:54:28.103Z,22.60
2018-05-25T06:56:55.634Z,23.00
2018-05-25T06:59:23.176Z,23.60
2018-05-25T07:01:50.699Z,24.20
2018-05-25T07:04:18.232Z,24.30
2018-05-25T07:06:45.763Z,24.50
2018-05-25T07:09:13.308Z,24.70
2018-05-25T07:11:41.598Z,24.60
2018-05-25T07:14:09.119Z,24.60
2018-05-25T07:16:36.644Z,24.80
2018-05-25T07:19:04.200Z,25.10
2018-05-25T07:21:31.724Z,25.70
2018-05-25T07:23:59.255Z,26.30
2018-05-25T07:26:26.766Z,26.40
2018-05-25T07:28:54.278Z,26.70
2018-05-25T07:31:21.799Z,26.80
2018-05-25T07:33:49.327Z,27.00
2018-05-25T07:36:16.847Z,26.90
2018-05-25T07:38:44.358Z,26.40
2018-05-25T07:41:12.639Z,26.20
2018-05-25T07:43:40.160Z,26.20
2018-05-25T07:46:07.679Z,26.70
2018-05-25T07:48:35.198Z,26.90
2018-05-25T07:51:02.719Z,26.90
2018-05-25T07:53:30.241Z,26.70
2018-05-25T07:55:57.829Z,26.60
2018-05-25T07:58:25.352Z,26.40
2018-05-25T08:00:52.874Z,27.50
2018-05-25T08:03:20.396Z,28.70
2018-05-25T08:05:47.920Z,29.40
2018-05-25T08:08:15.440Z,30.10
2018-05-25T08:10:42.965Z,31.30
2018-05-25T08:13:10.496Z,31.20
2018-05-25T08:15:38.025Z,30.70
2018-05-25T08:18:05.541Z,30.30
2018-05-25T08:20:33.063Z,30.70
2018-05-25T08:23:00.600Z,31.70
2018-05-25T08:25:28.131Z,32.70
2018-05-25T08:27:55.664Z,33.60
2018-05-25T08:30:23.252Z,34.30
2018-05-25T08:32:50.766Z,34.80
2018-05-25T08:35:18.306Z,35.10
2018-05-25T08:37:45.835Z,35.30
2018-05-25T08:40:13.380Z,35.40
2018-05-25T08:42:41.670Z,34.60
2018-05-25T08:45:09.208Z,34.60
2018-05-25T08:47:36.735Z,34.00
2018-05-25T08:50:04.279Z,33.40
2018-05-25T08:52:31.810Z,32.90
2018-05-25T08:54:59.330Z,32.40
2018-05-25T08:57:26.850Z,32.10
2018-05-25T08:59:54.367Z,31.70
2018-05-25T09:02:22.401Z,31.30
2018-05-25T09:04:49.919Z,31.00
2018-05-25T09:07:17.435Z,30.80
2018-05-25T09:09:44.959Z,30.60
2018-05-25T09:12:12.484Z,30.30
2018-05-25T09:14:39.999Z,30.10
2018-05-25T09:17:07.527Z,29.80
2018-05-25T09:19:35.042Z,29.40
2018-05-25T09:22:02.576Z,29.20
2018-05-25T09:24:30.087Z,29.20
2018-05-25T09:26:57.611Z,29.30
2018-05-25T09:29:25.127Z,29.30
2018-05-25T09:31:52.654Z,29.40
2018-05-25T09:34:20.180Z,29.40
2018-05-25T09:36:47.699Z,29.30
2018-05-25T09:39:16.071Z,29.30
2018-05-25T09:41:43.604Z,29.20
2018-05-25T09:44:11.119Z,29.30
2018-05-25T09:46:38.646Z,29.30
2018-05-25T09:49:06.171Z,29.20
2018-05-25T09:51:33.699Z,29.20
2018-05-25T09:54:01.264Z,29.20
2018-05-25T09:56:28.795Z,29.20
2018-05-25T09:58:56.319Z,29.10
2018-05-25T10:01:23.837Z,29.00
2018-05-25T10:03:51.359Z,28.90
2018-05-25T10:06:18.879Z,28.60
2018-05-25T10:08:46.411Z,28.40
2018-05-25T10:11:13.964Z,28.40
2018-05-25T10:13:41.489Z,28.40
2018-05-25T10:16:09.038Z,28.50
2018-05-25T10:18:36.559Z,28.60
2018-05-25T10:21:04.088Z,28.60
2018-05-25T10:23:31.604Z,28.80
2018-05-25T10:25:59.135Z,28.80
2018-05-25T10:28:26.652Z,28.90
2018-05-25T10:30:54.935Z,28.80
2018-05-25T10:33:22.479Z,28.80
2018-05-25T10:35:50.019Z,28.80
2018-05-25T10:38:17.539Z,28.70
2018-05-25T10:40:45.867Z,28.60
2018-05-25T10:43:14.171Z,28.50
2018-05-25T10:45:41.746Z,28.40
2018-05-25T10:48:09.227Z,28.30
2018-05-25T10:50:36.751Z,28.30
2018-05-25T10:53:05.316Z,28.10
2018-05-25T10:55:33.624Z,27.90
2018-05-25T10:58:01.164Z,27.90
2018-05-25T11:00:28.693Z,27.90
2018-05-25T11:02:56.231Z,27.80
2018-05-25T11:05:23.747Z,27.70
2018-05-25T11:07:51.263Z,27.70
2018-05-25T11:10:18.789Z,27.60
2018-05-25T11:12:46.299Z,27.70
2018-05-25T11:15:13.813Z,27.60
2018-05-25T11:17:41.336Z,27.60
2018-05-25T11:20:08.859Z,27.60
2018-05-25T11:22:37.061Z,27.70
2018-05-25T11:25:04.566Z,27.70
2018-05-25T11:27:32.084Z,27.70
2018-05-25T11:29:59.605Z,27.80
2018-05-25T11:32:27.120Z,27.80
2018-05-25T11:34:54.659Z,27.90
2018-05-25T11:37:22.173Z,27.80
2018-05-25T11:39:49.683Z,27.80
2018-05-25T11:42:17.970Z,27.90
2018-05-25T11:44:45.480Z,27.90
2018-05-25T11:47:13.020Z,28.00
2018-05-25T11:49:40.540Z,28.00
2018-05-25T11:52:08.087Z,28.00
2018-05-25T11:54:35.668Z,27.90
2018-05-25T11:57:03.211Z,27.80
2018-05-25T11:59:30.723Z,27.60
2018-05-25T12:01:58.241Z,27.60
2018-05-25T12:04:25.763Z,27.70
2018-05-25T12:06:53.280Z,27.90
2018-05-25T12:09:20.791Z,28.10
2018-05-25T12:11:48.304Z,28.30
2018-05-25T12:14:15.831Z,28.40
2018-05-25T12:16:43.342Z,28.30
2018-05-25T12:19:10.859Z,28.10
2018-05-25T12:21:38.375Z,27.90
2018-05-25T12:24:05.891Z,27.90
2018-05-25T12:26:33.419Z,27.80
2018-05-25T12:29:00.929Z,27.70
2018-05-25T12:31:28.963Z,27.50
2018-05-25T12:33:56.477Z,27.20
2018-05-25T12:36:23.992Z,27.10
2018-05-25T12:38:51.512Z,26.90
2018-05-25T12:41:19.027Z,26.80
2018-05-25T12:43:46.543Z,26.80
2018-05-25T12:46:14.071Z,26.90
2018-05-25T12:48:41.599Z,27.00
2018-05-25T12:51:09.107Z,27.20
2018-05-25T12:53:36.627Z,27.20
2018-05-25T12:56:04.145Z,27.30
2018-05-25T12:58:31.666Z,27.20
2018-05-25T13:00:59.183Z,27.20
2018-05-25T13:03:26.704Z,27.00
2018-05-25T13:05:54.213Z,27.00
2018-05-25T13:08:21.735Z,26.90
2018-05-25T13:10:49.248Z,27.00
2018-05-25T13:13:16.766Z,26.90
2018-05-25T13:15:44.289Z,26.50
2018-05-25T13:18:11.798Z,26.40
2018-05-25T13:20:39.309Z,26.50
2018-05-25T13:23:06.842Z,26.50
2018-05-25T13:25:34.464Z,26.60
2018-05-25T13:28:01.995Z,26.60
2018-05-25T13:30:29.500Z,26.50
2018-05-25T13:32:57.443Z,26.50
2018-05-25T13:35:24.950Z,26.50
2018-05-25T13:37:52.463Z,26.50
2018-05-25T13:40:19.986Z,26.40
2018-05-25T13:42:47.515Z,26.50
2018-05-25T13:45:15.039Z,26.40
2018-05-25T13:47:42.551Z,26.40
2018-05-25T13:50:10.835Z,26.50
2018-05-25T13:52:38.346Z,26.40
2018-05-25T13:55:05.867Z,26.50
2018-05-25T13:57:33.383Z,26.50
2018-05-25T14:00:00.907Z,26.50
2018-05-25T14:02:28.415Z,26.50
2018-05-25T14:04:55.927Z,26.60
2018-05-25T14:07:23.441Z,26.70
2018-05-25T14:09:50.963Z,26.80
2018-05-25T14:12:18.479Z,27.00
2018-05-25T14:14:45.999Z,27.10
2018-05-25T14:17:13.513Z,27.20
2018-05-25T14:19:41.023Z,27.10
2018-05-25T14:22:08.537Z,26.90
2018-05-25T14:24:36.042Z,26.80
2018-05-25T14:27:03.561Z,26.70
2018-05-25T14:29:31.067Z,26.50
2018-05-25T14:31:58.582Z,26.40
2018-05-25T14:34:26.095Z,26.30
2018-05-25T14:36:53.607Z,26.20
2018-05-25T14:39:21.139Z,26.20
2018-05-25T14:41:48.656Z,26.20
2018-05-25T14:44:16.175Z,26.10
2018-05-25T14:46:43.699Z,26.00
2018-05-25T14:49:11.224Z,26.00
2018-05-25T14:51:38.757Z,26.00
2018-05-25T14:54:06.275Z,26.10
2018-05-25T14:56:33.791Z,26.10
2018-05-25T14:59:01.355Z,26.20
2018-05-25T15:01:28.863Z,26.20
2018-05-25T15:03:57.163Z,26.20
2018-05-25T15:06:24.688Z,26.20
2018-05-25T15:08:52.236Z,26.20
2018-05-25T15:11:19.783Z,26.30
2018-05-25T15:13:47.291Z,26.30
2018-05-25T15:16:14.803Z,26.40
2018-05-25T15:18:42.319Z,26.40
2018-05-25T15:21:09.904Z,26.40
2018-05-25T15:23:37.463Z,26.40
2018-05-25T15:26:04.996Z,26.30
2018-05-25T15:28:33.285Z,26.20
2018-05-25T15:31:00.925Z,26.20
2018-05-25T15:33:28.347Z,26.20
2018-05-25T15:35:55.863Z,26.20
2018-05-25T15:38:23.414Z,26.20
2018-05-25T15:40:50.932Z,26.10
2018-05-25T15:43:18.435Z,26.10
2018-05-25T15:45:45.955Z,26.10
2018-05-25T15:48:13.473Z,26.00
2018-05-25T15:50:40.982Z,26.00
2018-05-25T15:53:08.499Z,26.00
2018-05-25T15:55:36.040Z,25.90
2018-05-25T15:58:03.563Z,25.90
2018-05-25T16:00:31.855Z,25.80
2018-05-25T16:02:59.419Z,25.80
2018-05-25T16:05:26.954Z,25.70
2018-05-25T16:07:55.248Z,25.80
2018-05-25T16:10:22.776Z,25.80
2018-05-25T16:12:50.288Z,25.90
2018-05-25T16:15:17.805Z,26.00
2018-05-25T16:17:45.330Z,26.10
2018-05-25T16:20:12.843Z,26.20
2018-05-25T16:22:40.367Z,26.20
2018-05-25T16:25:07.892Z,26.20
2018-05-25T16:27:35.411Z,26.20
2018-05-25T16:30:02.951Z,26.20
2018-05-25T16:32:30.475Z,26.10
2018-05-25T16:34:58.000Z,26.00
2018-05-25T16:37:26.274Z,25.90
2018-05-25T16:39:53.792Z,25.90
2018-05-25T16:42:21.304Z,25.90
2018-05-25T16:44:49.608Z,26.00
2018-05-25T16:47:17.123Z,26.00
2018-05-25T16:49:44.640Z,26.00
2018-05-25T16:52:12.152Z,26.00
2018-05-25T16:54:39.665Z,26.00
2018-05-25T16:57:07.187Z,26.10
2018-05-25T16:59:34.701Z,26.10
2018-05-25T17:02:02.225Z,26.10
2018-05-25T17:04:29.747Z,26.10
2018-05-25T17:06:57.255Z,26.00
2018-05-25T17:09:24.768Z,26.00
2018-05-25T17:11:52.279Z,26.00
2018-05-25T17:14:19.795Z,26.00
2018-05-25T17:16:48.091Z,25.90
2018-05-25T17:19:15.619Z,25.90
2018-05-25T17:21:43.131Z,25.80
2018-05-25T17:24:10.639Z,25.80
2018-05-25T17:26:38.156Z,25.70
2018-05-25T17:29:05.677Z,25.60
2018-05-25T17:31:33.203Z,25.60
2018-05-25T17:34:00.714Z,25.60
2018-05-25T17:36:28.223Z,25.50
2018-05-25T17:38:55.749Z,25.40
2018-05-25T17:41:23.260Z,25.40
2018-05-25T17:43:50.773Z,25.30
2018-05-25T17:46:18.287Z,25.30
2018-05-25T17:48:46.572Z,25.20
2018-05-25T17:51:14.086Z,25.10
2018-05-25T17:53:41.599Z,25.10
2018-05-25T17:56:09.111Z,25.10
2018-05-25T17:58:36.636Z,25.10
2018-05-25T18:01:04.148Z,25.00
2018-05-25T18:03:32.427Z,25.00
2018-05-25T18:05:59.940Z,25.00
2018-05-25T18:08:27.467Z,24.90
2018-05-25T18:10:55.974Z,24.80
2018-05-25T18:13:23.491Z,24.80
2018-05-25T18:15:51.804Z,24.80
2018-05-25T18:18:19.310Z,24.80
2018-05-25T18:20:46.852Z,24.80
2018-05-25T18:23:14.377Z,24.80
2018-05-25T18:25:41.896Z,24.80
2018-05-25T18:28:09.423Z,24.80
2018-05-25T18:30:36.937Z,24.70
2018-05-25T18:33:04.458Z,24.60
2018-05-25T18:35:31.981Z,24.60
2018-05-25T18:37:59.498Z,24.60
2018-05-25T18:40:27.031Z,24.50
2018-05-25T18:42:54.555Z,24.50
2018-05-25T18:45:22.077Z,24.50
2018-05-25T18:47:49.591Z,24.50
2018-05-25T18:50:17.111Z,24.40
2018-05-25T18:52:44.625Z,24.40
2018-05-25T18:55:12.140Z,24.30
2018-05-25T18:57:39.659Z,24.30
2018-05-25T19:00:07.175Z,24.30
2018-05-25T19:02:35.455Z,24.30
2018-05-25T19:05:02.983Z,24.20
2018-05-25T19:07:30.499Z,24.20
2018-05-25T19:09:58.096Z,24.20
2018-05-25T19:12:25.630Z,24.10
2018-05-25T19:14:53.160Z,24.10
2018-05-25T19:17:20.679Z,24.10
2018-05-25T19:19:48.188Z,24.00
2018-05-25T19:22:15.704Z,24.00
2018-05-25T19:24:43.228Z,23.90
2018-05-25T19:27:10.747Z,23.90
2018-05-25T19:29:39.031Z,23.80
2018-05-25T19:32:06.560Z,23.80
2018-05-25T19:34:34.083Z,23.70
2018-05-25T19:37:01.595Z,23.70
2018-05-25T19:39:29.867Z,23.60
2018-05-25T19:41:57.385Z,23.60
2018-05-25T19:44:24.907Z,23.60
2018-05-25T19:46:52.428Z,23.50
2018-05-25T19:49:19.951Z,23.50
2018-05-25T19:51:47.492Z,23.40
2018-05-25T19:54:15.018Z,23.40
2018-05-25T19:56:42.557Z,23.40
2018-05-25T19:59:10.085Z,23.30
2018-05-25T20:01:37.631Z,23.30
2018-05-25T20:04:05.180Z,23.20
2018-05-25T20:06:33.463Z,23.20
2018-05-25T20:09:00.999Z,23.20
2018-05-25T20:11:28.511Z,23.10
2018-05-25T20:13:56.036Z,23.00
2018-05-25T20:16:24.325Z,23.00
2018-05-25T20:18:51.853Z,23.00
2018-05-25T20:21:19.379Z,22.90
2018-05-25T20:23:46.900Z,22.90
2018-05-25T20:26:15.191Z,22.80
2018-05-25T20:28:42.716Z,22.80
2018-05-25T20:31:10.234Z,22.80
2018-05-25T20:33:37.779Z,22.70
2018-05-25T20:36:05.311Z,22.70
2018-05-25T20:38:32.838Z,22.60
2018-05-25T20:41:00.363Z,22.60
2018-05-25T20:43:27.880Z,22.60
2018-05-25T20:45:55.401Z,22.50
2018-05-25T20:48:22.927Z,22.50
2018-05-25T20:50:50.479Z,22.50
2018-05-25T20:53:18.052Z,22.40
2018-05-25T20:55:45.545Z,22.40
2018-05-25T20:58:13.103Z,22.40
2018-05-25T21:00:40.639Z,22.40
2018-05-25T21:03:08.164Z,22.30
2018-05-25T21:05:35.689Z,22.30
2018-05-25T21:08:03.233Z,22.30
2018-05-25T21:10:30.760Z,22.20
2018-05-25T21:12:58.299Z,22.20
2018-05-25T21:15:25.834Z,22.20
2018-05-25T21:17:53.395Z,22.20
2018-05-25T21:20:20.931Z,22.20
2018-05-25T21:22:48.487Z,22.10
2018-05-25T21:25:16.607Z,22.10
2018-05-25T21:27:44.143Z,22.10
2018-05-25T21:30:11.673Z,22.10
2018-05-25T21:32:39.227Z,22.10
2018-05-25T21:35:06.879Z,22.10
2018-05-25T21:37:34.415Z,22.00
2018-05-25T21:40:01.931Z,22.00
2018-05-25T21:42:29.451Z,22.00
2018-05-25T21:44:56.978Z,22.00
2018-05-25T21:47:24.507Z,22.00
2018-05-25T21:49:52.027Z,21.90
2018-05-25T21:52:20.315Z,21.90
2018-05-25T21:54:47.839Z,21.90
2018-05-25T21:57:15.356Z,21.90
2018-05-25T21:59:42.881Z,21.90
2018-05-25T22:02:11.179Z,21.80
2018-05-25T22:04:38.704Z,21.90
2018-05-25T22:07:06.264Z,21.80
2018-05-25T22:09:33.786Z,21.80
2018-05-25T22:12:01.312Z,21.80
2018-05-25T22:14:28.839Z,21.80
2018-05-25T22:16:56.359Z,21.80
2018-05-25T22:19:23.887Z,21.70
2018-05-25T22:21:51.427Z,21.70
2018-05-25T22:24:18.943Z,21.70
2018-05-25T22:26:46.463Z,21.70
2018-05-25T22:29:14.747Z,21.60
2018-05-25T22:31:42.272Z,21.60
2018-05-25T22:34:10.559Z,21.60
2018-05-25T22:36:38.080Z,21.60
2018-05-25T22:39:05.607Z,21.50
2018-05-25T22:41:33.130Z,21.50
2018-05-25T22:44:12.400Z,21.50
2018-05-25T22:46:51.706Z,21.40
2018-05-25T22:49:30.859Z,21.40
2018-05-25T22:52:10.207Z,21.40
2018-05-25T22:54:42.464Z,21.30
2018-05-25T22:57:09.963Z,21.30
2018-05-25T22:59:37.492Z,21.30
2018-05-25T23:02:05.027Z,21.30
2018-05-25T23:04:33.281Z,21.30
2018-05-25T23:07:00.824Z,21.20
2018-05-25T23:09:28.360Z,21.30
2018-05-25T23:11:55.887Z,21.20
2018-05-25T23:14:23.407Z,21.20
2018-05-25T23:16:50.926Z,21.20
2018-05-25T23:19:19.215Z,21.10
2018-05-25T23:21:46.736Z,21.10
2018-05-25T23:24:14.259Z,21.10
2018-05-25T23:26:41.783Z,21.10
2018-05-25T23:29:10.076Z,21.10
2018-05-25T23:31:37.623Z,21.10
2018-05-25T23:34:05.156Z,21.10
2018-05-25T23:36:32.700Z,21.10
2018-05-25T23:39:00.239Z,21.10
2018-05-25T23:41:27.751Z,21.00
2018-05-25T23:43:55.295Z,21.00
2018-05-25T23:46:22.821Z,21.00
2018-05-25T23:48:50.363Z,21.00
2018-05-25T23:51:17.888Z,21.00
2018-05-25T23:53:46.175Z,20.90
2018-05-25T23:56:13.700Z,20.90
2018-05-25T23:58:41.228Z,20.90
